Aérodrome :
LOGIN :

S'inscrire | Disclaimer

   EN    FR    IT 

 










Légende :    VFR   VFR Marginal   IFR   IFR Intensif   IFR Très Intensif
Visi : 
Plafond : 
>= 8 km
>= 3000ft
5 à 8 km
1000 à 3000 ft
1500m à 5 km
500 à 1000 ft
800 à 1500m
200 à 500 ft
< 800m
< 200 ft
Symboles :   Orages  Brouillard  Fortes neiges  Fortes précipitations  Vent > 20 kt
SIGMETs :   Divers  Orages  Givrage  Turbulence  Onde Orograph.  Cendres Volcan.







- Altitude de l'aérodrome : 74 ft
- Code IATA : MRS
- Voir les cartes d'approche


LFML - Marseille / Marignane

DERNIER METAR :
  • 170730Z AUTO 31021KT CAVOK 27/15 Q1013 TEMPO 30019G29KT

METARs EXPIRÉS :
  • 170700Z AUTO 32016KT 280V340 CAVOK 26/15 Q1013 TEMPO 30019G29KT
  • 170630Z AUTO 32016KT CAVOK 25/15 Q1013 TEMPO 30019G29KT
  • 170600Z AUTO 33015KT 9999 FEW017 25/15 Q1013 TEMPO 30019G29KT
  • 170530Z AUTO 34015KT 9999 FEW019 24/14 Q1013 TEMPO 30019G29KT
  • 170500Z AUTO 32009KT CAVOK 24/15 Q1013 TEMPO 30019G29KT

TAF TAF LFML
Valide du 17 à 03h jusqu'au 18 à 09h UTC


170200Z 1703/1809 30011KT CAVOK TX33/1713Z TN21/1704Z
TEMPO 1703/1718 30019G29KT
BECMG 1718/1722 VRB03KT
ATIS : +33 4 42 31 15 15
Pas de NOTAMs connus pour ce terrain.



MET'MAP, la Météo Aéronautique d'un coup d'oeil ! - Copyright ORBIFLY Décembre 2007 - Disclaimer

ORBIFLY MET'MAP TEAM :

Programmation & Développement : Alexandra Zaïnal
Conception & Développement : Baudouin d'Aumeries
Co-Programmation & Développement : Marc-Olivier Méhu
Soutien technique & logistique : Manuel Goepfert

Contact : metmap@orbifly.com




SOURCES & CREDITS :

   NOAA